createdAt,value
2018-05-13T00:01:56.811Z,98451
2018-05-13T00:04:24.218Z,98452
2018-05-13T00:06:50.899Z,98452
2018-05-13T00:09:18.308Z,98453
2018-05-13T00:11:44.996Z,98453
2018-05-13T00:14:12.459Z,98454
2018-05-13T00:16:39.884Z,98449
2018-05-13T00:19:06.586Z,98446
2018-05-13T00:21:33.281Z,98445
2018-05-13T00:23:59.981Z,98446
2018-05-13T00:26:26.683Z,98441
2018-05-13T00:28:53.364Z,98443
2018-05-13T00:31:20.103Z,98440
2018-05-13T00:33:46.797Z,98441
2018-05-13T00:36:13.472Z,98442
2018-05-13T00:38:40.144Z,98444
2018-05-13T00:41:06.831Z,98443
2018-05-13T00:43:33.519Z,98440
2018-05-13T00:46:00.199Z,98437
2018-05-13T00:48:26.868Z,98432
2018-05-13T00:50:53.559Z,98429
2018-05-13T00:53:20.994Z,98432
2018-05-13T00:55:47.681Z,98431
2018-05-13T00:58:14.346Z,98433
2018-05-13T01:00:41.049Z,98430
2018-05-13T01:03:07.713Z,98431
2018-05-13T01:05:34.414Z,98425
2018-05-13T01:08:01.117Z,98422
2018-05-13T01:10:27.800Z,98419
2018-05-13T01:12:54.473Z,98420
2018-05-13T01:15:21.151Z,98421
2018-05-13T01:17:48.583Z,98418
2018-05-13T01:20:15.260Z,98423
2018-05-13T01:22:41.954Z,98417
2018-05-13T01:25:08.624Z,98415
2018-05-13T01:27:36.056Z,98411
2018-05-13T01:30:02.827Z,98408
2018-05-13T01:32:29.495Z,98403
2018-05-13T01:34:56.168Z,98409
2018-05-13T01:37:22.844Z,98407
2018-05-13T01:39:49.512Z,98404
2018-05-13T01:42:16.207Z,98396
2018-05-13T01:44:42.871Z,98395
2018-05-13T01:47:09.540Z,98396
2018-05-13T01:49:36.196Z,98392
2018-05-13T01:52:03.672Z,98395
2018-05-13T01:54:34.904Z,98391
2018-05-13T01:57:01.572Z,98390
2018-05-13T01:59:28.251Z,98388
2018-05-13T02:01:54.932Z,98381
2018-05-13T02:04:22.369Z,98383
2018-05-13T02:06:49.066Z,98384
2018-05-13T02:09:15.743Z,98384
2018-05-13T02:11:42.406Z,98378
2018-05-13T02:14:09.827Z,98377
2018-05-13T02:16:36.501Z,98370
2018-05-13T02:19:03.924Z,98377
2018-05-13T02:21:30.586Z,98374
2018-05-13T02:23:57.994Z,98380
2018-05-13T02:26:25.413Z,98375
2018-05-13T02:28:52.097Z,98371
2018-05-13T02:31:18.779Z,98375
2018-05-13T02:33:46.189Z,98377
2018-05-13T02:36:12.857Z,98371
2018-05-13T02:38:39.539Z,98373
2018-05-13T02:41:06.232Z,98372
2018-05-13T02:43:32.912Z,98370
2018-05-13T02:45:59.577Z,98369
2018-05-13T02:48:26.257Z,98369
2018-05-13T02:50:53.678Z,98364
2018-05-13T02:53:21.126Z,98363
2018-05-13T02:55:47.794Z,98361
2018-05-13T02:58:14.471Z,98366
2018-05-13T03:00:41.154Z,98364
2018-05-13T03:03:07.864Z,98370
2018-05-13T03:05:35.324Z,98347
2018-05-13T03:08:02.756Z,98365
2018-05-13T03:10:29.435Z,98359
2018-05-13T03:12:56.142Z,98362
2018-05-13T03:15:22.832Z,98362
2018-05-13T03:17:49.504Z,98365
2018-05-13T03:20:16.925Z,98366
2018-05-13T03:22:43.594Z,98361
2018-05-13T03:25:11.000Z,98362
2018-05-13T03:27:37.679Z,98360
2018-05-13T03:30:05.107Z,98362
2018-05-13T03:32:31.784Z,98358
2018-05-13T03:34:58.474Z,98363
2018-05-13T03:37:25.172Z,98366
2018-05-13T03:39:51.867Z,98367
2018-05-13T03:42:18.552Z,98364
2018-05-13T03:44:45.244Z,98362
2018-05-13T03:47:11.950Z,98365
2018-05-13T03:49:38.619Z,98366
2018-05-13T03:52:05.305Z,98358
2018-05-13T03:54:34.386Z,98353
2018-05-13T03:57:01.059Z,98360
2018-05-13T03:59:27.734Z,98360
2018-05-13T04:01:54.411Z,98367
2018-05-13T04:04:21.155Z,98362
2018-05-13T04:06:48.681Z,98363
2018-05-13T04:09:36.111Z,98365
2018-05-13T04:12:21.914Z,98362
2018-05-13T04:15:07.172Z,98360
2018-05-13T04:17:35.447Z,98359
2018-05-13T04:20:03.614Z,98365
2018-05-13T04:22:31.027Z,98367
2018-05-13T04:24:57.694Z,98374
2018-05-13T04:27:24.376Z,98368
2018-05-13T04:29:51.037Z,98367
2018-05-13T04:32:17.712Z,98367
2018-05-13T04:34:44.387Z,98365
2018-05-13T04:37:11.065Z,98364
2018-05-13T04:39:37.816Z,98365
2018-05-13T04:42:04.449Z,98372
2018-05-13T04:44:31.127Z,98375
2018-05-13T04:46:58.544Z,98377
2018-05-13T04:49:25.217Z,98378
2018-05-13T04:51:52.627Z,98379
2018-05-13T04:54:19.319Z,98376
2018-05-13T04:56:46.026Z,98376
2018-05-13T04:59:12.749Z,98374
2018-05-13T05:01:39.438Z,98374
2018-05-13T05:04:06.111Z,98379
2018-05-13T05:06:32.796Z,98388
2018-05-13T05:09:00.236Z,98387
2018-05-13T05:11:26.923Z,98382
2018-05-13T05:13:53.596Z,98385
2018-05-13T05:16:20.259Z,98385
2018-05-13T05:18:47.703Z,98385
2018-05-13T05:21:14.389Z,98378
2018-05-13T05:23:41.064Z,98388
2018-05-13T05:26:07.754Z,98383
2018-05-13T05:28:34.446Z,98383
2018-05-13T05:31:01.139Z,98385
2018-05-13T05:33:27.816Z,98380
2018-05-13T05:35:54.544Z,98382
2018-05-13T05:38:21.211Z,98381
2018-05-13T05:40:47.896Z,98379
2018-05-13T05:43:14.628Z,98380
2018-05-13T05:45:41.299Z,98377
2018-05-13T05:48:07.971Z,98377
2018-05-13T05:50:34.643Z,98373
2018-05-13T05:53:01.364Z,98376
2018-05-13T05:55:28.792Z,98379
2018-05-13T05:57:55.797Z,98377
2018-05-13T06:00:22.496Z,98376
2018-05-13T06:02:49.936Z,98374
2018-05-13T06:05:16.619Z,98377
2018-05-13T06:07:43.297Z,98375
2018-05-13T06:10:10.004Z,98371
2018-05-13T06:12:36.683Z,98367
2018-05-13T06:15:03.420Z,98361
2018-05-13T06:17:30.103Z,98350
2018-05-13T06:19:56.804Z,98344
2018-05-13T06:22:23.479Z,98338
2018-05-13T06:24:50.163Z,98328
2018-05-13T06:27:16.884Z,98335
2018-05-13T06:29:43.544Z,98337
2018-05-13T06:32:10.251Z,98342
2018-05-13T06:34:36.956Z,98341
2018-05-13T06:37:04.427Z,98348
2018-05-13T06:39:31.148Z,98359
2018-05-13T06:41:58.575Z,98358
2018-05-13T06:44:25.279Z,98360
2018-05-13T06:46:52.011Z,98365
2018-05-13T06:49:18.711Z,98374
2018-05-13T06:51:45.431Z,98372
2018-05-13T06:54:12.111Z,98378
2018-05-13T06:56:39.586Z,98375
2018-05-13T06:59:06.271Z,98382
2018-05-13T07:01:32.967Z,98376
2018-05-13T07:03:59.669Z,98372
2018-05-13T07:06:27.109Z,98371
2018-05-13T07:08:53.799Z,98371
2018-05-13T07:11:20.493Z,98368
2018-05-13T07:13:47.157Z,98362
2018-05-13T07:16:14.571Z,98359
2018-05-13T07:18:41.248Z,98355
2018-05-13T07:21:08.667Z,98350
2018-05-13T07:23:36.096Z,98355
2018-05-13T07:26:02.775Z,98363
2018-05-13T07:28:29.487Z,98359
2018-05-13T07:30:56.179Z,98353
2018-05-13T07:33:22.849Z,98356
2018-05-13T07:35:49.556Z,98353
2018-05-13T07:38:16.257Z,98346
2018-05-13T07:40:42.948Z,98343
2018-05-13T07:43:09.624Z,98343
2018-05-13T07:45:36.305Z,98342
2018-05-13T07:48:03.014Z,98337
2018-05-13T07:50:29.725Z,98340
2018-05-13T07:52:56.459Z,98339
2018-05-13T07:55:23.154Z,98336
2018-05-13T07:57:50.602Z,98342
2018-05-13T08:00:18.066Z,98336
2018-05-13T08:02:45.507Z,98336
2018-05-13T08:05:12.212Z,98344
2018-05-13T08:07:38.931Z,98346
2018-05-13T08:10:05.665Z,98351
2018-05-13T08:12:32.352Z,98348
2018-05-13T08:14:59.045Z,98342
2018-05-13T08:17:25.752Z,98344
2018-05-13T08:19:53.207Z,98345
2018-05-13T08:22:20.667Z,98348
2018-05-13T08:24:48.150Z,98350
2018-05-13T08:27:14.859Z,98352
2018-05-13T08:29:42.312Z,98358
2018-05-13T08:32:09.739Z,98357
2018-05-13T08:34:36.425Z,98345
2018-05-13T08:37:03.146Z,98344
2018-05-13T08:39:30.572Z,98338
2018-05-13T08:41:57.275Z,98336
2018-05-13T08:44:23.998Z,98345
2018-05-13T08:46:50.694Z,98337
2018-05-13T08:49:17.407Z,98341
2018-05-13T08:51:44.094Z,98339
2018-05-13T08:54:11.520Z,98343
2018-05-13T08:56:38.205Z,98336
2018-05-13T08:59:05.655Z,98332
2018-05-13T09:01:33.084Z,98332
2018-05-13T09:03:59.805Z,98332
2018-05-13T09:06:26.481Z,98330
2018-05-13T09:08:53.208Z,98326
2018-05-13T09:11:19.947Z,98329
2018-05-13T09:13:46.634Z,98324
2018-05-13T09:16:13.400Z,98318
2018-05-13T09:18:40.151Z,98323
2018-05-13T09:21:06.834Z,98318
2018-05-13T09:23:33.522Z,98327
2018-05-13T09:26:00.219Z,98311
2018-05-13T09:28:26.960Z,98312
2018-05-13T09:30:53.701Z,98318
2018-05-13T09:33:20.399Z,98306
2018-05-13T09:35:47.122Z,98315
2018-05-13T09:38:13.939Z,98317
2018-05-13T09:40:40.554Z,98306
2018-05-13T09:43:07.254Z,98315
2018-05-13T09:45:33.965Z,98314
2018-05-13T09:48:00.673Z,98311
2018-05-13T09:50:27.384Z,98305
2018-05-13T09:52:54.868Z,98312
2018-05-13T09:55:21.595Z,98314
2018-05-13T09:58:16.012Z,98304
2018-05-13T10:00:42.739Z,98315
2018-05-13T10:03:09.510Z,98319
2018-05-13T10:05:36.247Z,98306
2018-05-13T10:08:03.044Z,98304
2018-05-13T10:10:29.767Z,98301
2018-05-13T10:12:57.257Z,98306
2018-05-13T10:15:23.979Z,98307
2018-05-13T10:17:50.720Z,98303
2018-05-13T10:20:17.449Z,98305
2018-05-13T10:22:44.159Z,98306
2018-05-13T10:25:10.871Z,98296
2018-05-13T10:27:37.582Z,98291
2018-05-13T10:30:04.389Z,98291
2018-05-13T10:32:31.091Z,98290
2018-05-13T10:34:57.828Z,98284
2018-05-13T10:37:24.551Z,98277
2018-05-13T10:39:51.259Z,98284
2018-05-13T10:42:18.752Z,98283
2018-05-13T10:44:45.472Z,98279
2018-05-13T10:47:12.192Z,98284
2018-05-13T10:49:39.637Z,98285
2018-05-13T10:52:06.397Z,98279
2018-05-13T10:54:33.109Z,98280
2018-05-13T10:57:00.254Z,98273
2018-05-13T10:59:26.959Z,98275
2018-05-13T11:01:53.695Z,98266
2018-05-13T11:04:20.391Z,98261
2018-05-13T11:06:47.874Z,98261
2018-05-13T11:09:14.638Z,98256
2018-05-13T11:11:41.357Z,98255
2018-05-13T11:14:08.127Z,98261
2018-05-13T11:16:34.814Z,98268
2018-05-13T11:19:02.265Z,98264
2018-05-13T11:21:29.957Z,98254
2018-05-13T11:23:56.645Z,98251
2018-05-13T11:26:23.385Z,98240
2018-05-13T11:28:50.090Z,98235
2018-05-13T11:31:16.827Z,98248
2018-05-13T11:33:43.562Z,98241
2018-05-13T11:36:10.240Z,98237
2018-05-13T11:38:37.727Z,98239
2018-05-13T11:41:05.152Z,98230
2018-05-13T11:43:31.869Z,98235
2018-05-13T11:45:58.652Z,98222
2018-05-13T11:48:26.102Z,98224
2018-05-13T11:50:53.567Z,98218
2018-05-13T11:53:21.081Z,98213
2018-05-13T11:55:47.787Z,98227
2018-05-13T11:58:14.532Z,98211
2018-05-13T12:00:41.283Z,98210
2018-05-13T12:03:08.021Z,98207
2018-05-13T12:05:34.709Z,98197
2018-05-13T12:08:01.442Z,98196
2018-05-13T12:10:28.147Z,98193
2018-05-13T12:12:54.880Z,98182
2018-05-13T12:15:21.567Z,98193
2018-05-13T12:17:49.025Z,98180
2018-05-13T12:20:16.493Z,98180
2018-05-13T12:22:43.927Z,98170
2018-05-13T12:25:10.626Z,98154
2018-05-13T12:27:37.319Z,98146
2018-05-13T12:30:04.857Z,98154
2018-05-13T12:32:31.612Z,98155
2018-05-13T12:34:59.317Z,98153
2018-05-13T12:37:26.145Z,98162
2018-05-13T12:39:53.245Z,98154
2018-05-13T12:42:19.947Z,98158
2018-05-13T12:44:46.654Z,98158
2018-05-13T12:47:14.120Z,98140
2018-05-13T12:49:40.894Z,98143
2018-05-13T12:52:08.579Z,98147
2018-05-13T12:54:35.306Z,98145
2018-05-13T12:57:02.034Z,98142
2018-05-13T12:59:28.752Z,98135
2018-05-13T13:01:55.471Z,98140
2018-05-13T13:04:22.934Z,98141
2018-05-13T13:06:49.668Z,98149
2018-05-13T13:09:17.145Z,98133
2018-05-13T13:11:43.856Z,98134
2018-05-13T13:14:11.320Z,98137
2018-05-13T13:16:38.803Z,98129
2018-05-13T13:19:06.297Z,98126
2018-05-13T13:21:33.071Z,98121
2018-05-13T13:24:00.506Z,98118
2018-05-13T13:26:27.219Z,98111
2018-05-13T13:28:53.983Z,98107
2018-05-13T13:31:20.754Z,98115
2018-05-13T13:33:47.457Z,98115
2018-05-13T13:36:14.192Z,98113
2018-05-13T13:38:41.017Z,98105
2018-05-13T13:41:07.877Z,98106
2018-05-13T13:43:34.559Z,98106
2018-05-13T13:46:01.285Z,98104
2018-05-13T13:48:28.740Z,98101
2018-05-13T13:50:56.215Z,98107
2018-05-13T13:53:22.936Z,98087
2018-05-13T13:55:50.372Z,98092
2018-05-13T13:58:17.146Z,98094
2018-05-13T14:00:43.899Z,98089
2018-05-13T14:03:10.604Z,98088
2018-05-13T14:05:38.046Z,98067
2018-05-13T14:08:05.564Z,98084
2018-05-13T14:10:32.279Z,98089
2018-05-13T14:12:58.992Z,98083
2018-05-13T14:15:26.447Z,98084
2018-05-13T14:17:53.132Z,98080
2018-05-13T14:20:19.922Z,98081
2018-05-13T14:22:46.634Z,98082
2018-05-13T14:25:13.357Z,98068
2018-05-13T14:27:40.833Z,98076
2018-05-13T14:30:07.550Z,98069
2018-05-13T14:32:34.279Z,98056
2018-05-13T14:35:00.999Z,98065
2018-05-13T14:37:28.427Z,98067
2018-05-13T14:39:55.281Z,98064
2018-05-13T14:42:21.882Z,98061
2018-05-13T14:44:48.592Z,98057
2018-05-13T14:47:16.099Z,98065
2018-05-13T14:49:42.862Z,98070
2018-05-13T14:52:10.367Z,98061
2018-05-13T14:54:37.073Z,98060
2018-05-13T14:57:03.845Z,98058
2018-05-13T14:59:30.587Z,98056
2018-05-13T15:01:57.377Z,98063
2018-05-13T15:04:24.907Z,98057
2018-05-13T15:06:51.685Z,98058
2018-05-13T15:09:19.160Z,98061
2018-05-13T15:11:45.916Z,98059
2018-05-13T15:14:12.635Z,98056
2018-05-13T15:16:39.369Z,98055
2018-05-13T15:19:06.812Z,98056
2018-05-13T15:21:34.263Z,98059
2018-05-13T15:24:01.704Z,98062
2018-05-13T15:26:28.416Z,98062
2018-05-13T15:28:55.182Z,98059
2018-05-13T15:31:21.833Z,98058
2018-05-13T15:33:49.262Z,98055
2018-05-13T15:36:15.979Z,98067
2018-05-13T15:38:42.679Z,98063
2018-05-13T15:41:10.232Z,98061
2018-05-13T15:43:37.675Z,98056
2018-05-13T15:46:04.431Z,98049
2018-05-13T15:48:31.876Z,98055
2018-05-13T15:50:59.402Z,98055
2018-05-13T15:53:26.904Z,98057
2018-05-13T15:55:54.344Z,98056
2018-05-13T15:58:21.787Z,98063
2018-05-13T16:00:48.480Z,98060
2018-05-13T16:03:15.171Z,98053
2018-05-13T16:05:41.866Z,98066
2018-05-13T16:08:08.570Z,98062
2018-05-13T16:10:35.316Z,98060
2018-05-13T16:13:02.019Z,98059
2018-05-13T16:15:28.867Z,98052
2018-05-13T16:17:55.613Z,98055
2018-05-13T16:20:23.097Z,98048
2018-05-13T16:22:49.807Z,98048
2018-05-13T16:25:16.506Z,98042
2018-05-13T16:27:43.211Z,98047
2018-05-13T16:30:10.144Z,98048
2018-05-13T16:32:36.909Z,98043
2018-05-13T16:35:03.759Z,98045
2018-05-13T16:37:30.557Z,98041
2018-05-13T16:39:58.141Z,98036
2018-05-13T16:42:24.891Z,98030
2018-05-13T16:44:51.654Z,98028
2018-05-13T16:47:18.872Z,98028
2018-05-13T16:49:45.603Z,98020
2018-05-13T16:52:13.099Z,98014
2018-05-13T16:54:39.832Z,98005
2018-05-13T16:57:06.599Z,98009
2018-05-13T16:59:33.304Z,98013
2018-05-13T17:01:59.999Z,98020
2018-05-13T17:04:26.697Z,98019
2018-05-13T17:06:53.379Z,98012
2018-05-13T17:09:20.227Z,98011
2018-05-13T17:11:46.960Z,98006
2018-05-13T17:14:14.411Z,98011
2018-05-13T17:16:41.132Z,98006
2018-05-13T17:19:07.856Z,98007
2018-05-13T17:21:34.957Z,98001
2018-05-13T17:24:02.415Z,98001
2018-05-13T17:26:29.889Z,98000
2018-05-13T17:28:56.591Z,97999
2018-05-13T17:31:23.289Z,98003
2018-05-13T17:33:50.106Z,98006
2018-05-13T17:36:16.850Z,98013
2018-05-13T17:38:43.545Z,98019
2018-05-13T17:41:11.016Z,98026
2018-05-13T17:43:37.769Z,98017
2018-05-13T17:46:04.492Z,98029
2018-05-13T17:48:31.959Z,98015
2018-05-13T17:50:59.400Z,98021
2018-05-13T17:53:26.968Z,98015
2018-05-13T17:55:53.604Z,98030
2018-05-13T17:58:21.135Z,98021
2018-05-13T18:00:47.878Z,98028
2018-05-13T18:03:14.553Z,98022
2018-05-13T18:05:41.280Z,98029
2018-05-13T18:08:08.734Z,98033
2018-05-13T18:10:36.192Z,98028
2018-05-13T18:13:03.667Z,98027
2018-05-13T18:15:30.379Z,98034
2018-05-13T18:17:57.137Z,98027
2018-05-13T18:20:24.654Z,98031
2018-05-13T18:22:51.379Z,98030
2018-05-13T18:25:18.113Z,98034
2018-05-13T18:27:44.845Z,98026
2018-05-13T18:30:11.637Z,98027
2018-05-13T18:32:39.111Z,98036
2018-05-13T18:35:05.884Z,98044
2018-05-13T18:37:32.607Z,98038
2018-05-13T18:40:00.114Z,98045
2018-05-13T18:42:27.693Z,98046
2018-05-13T18:44:55.151Z,98033
2018-05-13T18:47:22.599Z,98057
2018-05-13T18:49:50.143Z,98055
2018-05-13T18:52:16.839Z,98051
2018-05-13T18:54:43.612Z,98053
2018-05-13T18:57:10.396Z,98055
2018-05-13T18:59:37.179Z,98054
2018-05-13T19:02:04.027Z,98047
2018-05-13T19:04:30.865Z,98051
2018-05-13T19:06:57.711Z,98056
2018-05-13T19:09:24.484Z,98057
2018-05-13T19:11:52.004Z,98062
2018-05-13T19:14:18.772Z,98064
2018-05-13T19:16:45.554Z,98068
2018-05-13T19:19:12.282Z,98073
2018-05-13T19:21:39.786Z,98072
2018-05-13T19:24:06.484Z,98078
2018-05-13T19:26:33.185Z,98070
2018-05-13T19:28:59.962Z,98072
2018-05-13T19:31:26.680Z,98076
2018-05-13T19:33:54.432Z,98080
2018-05-13T19:36:21.197Z,98082
2018-05-13T19:38:47.975Z,98080
2018-05-13T19:41:14.747Z,98085
2018-05-13T19:43:42.219Z,98085
2018-05-13T19:46:09.694Z,98079
2018-05-13T19:48:37.252Z,98075
2018-05-13T19:51:03.985Z,98080
2018-05-13T19:53:31.440Z,98073
2018-05-13T19:55:59.818Z,98078
2018-05-13T19:58:27.291Z,98069
2018-05-13T20:00:54.009Z,98060
2018-05-13T20:03:21.654Z,98064
2018-05-13T20:05:48.354Z,98059
2018-05-13T20:08:15.094Z,98055
2018-05-13T20:10:41.816Z,98051
2018-05-13T20:13:08.550Z,98047
2018-05-13T20:15:35.310Z,98046
2018-05-13T20:18:02.892Z,98043
2018-05-13T20:20:29.592Z,98045
2018-05-13T20:23:14.585Z,98048
2018-05-13T20:25:42.051Z,98047
2018-05-13T20:28:08.800Z,98040
2018-05-13T20:30:35.522Z,98039
2018-05-13T20:33:02.287Z,98042
2018-05-13T20:35:29.000Z,98039
2018-05-13T20:37:55.712Z,98037
2018-05-13T20:40:22.419Z,98047
2018-05-13T20:42:49.148Z,98043
2018-05-13T20:45:16.627Z,98036
2018-05-13T20:47:44.087Z,98041
2018-05-13T20:50:11.719Z,98044
2018-05-13T20:52:38.579Z,98041
2018-05-13T20:55:06.060Z,98041
2018-05-13T20:57:32.804Z,98043
2018-05-13T20:59:59.527Z,98050
2018-05-13T21:02:26.974Z,98049
2018-05-13T21:04:54.449Z,98049
2018-05-13T21:07:21.175Z,98048
2018-05-13T21:09:48.814Z,98048
2018-05-13T21:12:15.584Z,98049
2018-05-13T21:14:42.321Z,98047
2018-05-13T21:17:09.804Z,98052
2018-05-13T21:19:36.528Z,98043
2018-05-13T21:22:03.222Z,98045
2018-05-13T21:24:29.996Z,98039
2018-05-13T21:26:56.662Z,98042
2018-05-13T21:29:23.364Z,98049
2018-05-13T21:31:50.885Z,98047
2018-05-13T21:34:17.594Z,98051
2018-05-13T21:36:44.317Z,98046
2018-05-13T21:39:11.052Z,98037
2018-05-13T21:41:37.780Z,98032
2018-05-13T21:44:05.284Z,98045
2018-05-13T21:46:32.004Z,98039
2018-05-13T21:48:58.740Z,98040
2018-05-13T21:51:25.471Z,98041
2018-05-13T21:53:52.181Z,98034
2018-05-13T21:56:18.916Z,98046
2018-05-13T21:58:45.619Z,98034
2018-05-13T22:01:12.299Z,98038
2018-05-13T22:03:38.976Z,98030
2018-05-13T22:06:06.571Z,98023
2018-05-13T22:08:34.063Z,98029
2018-05-13T22:11:01.558Z,98042
2018-05-13T22:13:28.276Z,98037
2018-05-13T22:15:55.014Z,98037
2018-05-13T22:18:21.699Z,98029
2018-05-13T22:20:48.390Z,98027
2018-05-13T22:23:15.144Z,98034
2018-05-13T22:25:41.887Z,98033
2018-05-13T22:28:08.544Z,98022
2018-05-13T22:30:35.228Z,98027
2018-05-13T22:33:01.909Z,98027
2018-05-13T22:35:28.608Z,98027
2018-05-13T22:37:56.066Z,98028
2018-05-13T22:40:23.511Z,98028
2018-05-13T22:42:50.229Z,98018
2018-05-13T22:45:16.952Z,98017
2018-05-13T22:47:43.707Z,98007
2018-05-13T22:50:10.419Z,98008
2018-05-13T22:52:37.212Z,98003
2018-05-13T22:55:04.667Z,98018
2018-05-13T22:57:32.119Z,98007
2018-05-13T22:59:59.621Z,98000
2018-05-13T23:02:26.361Z,98002
2018-05-13T23:04:53.037Z,98019
2018-05-13T23:07:19.775Z,98021
2018-05-13T23:09:46.484Z,98009
2018-05-13T23:12:13.194Z,98004
2018-05-13T23:14:40.632Z,98007
2018-05-13T23:17:08.064Z,98004
2018-05-13T23:19:34.774Z,97997
2018-05-13T23:22:01.486Z,97993
2018-05-13T23:24:28.154Z,97999
2018-05-13T23:26:54.859Z,98003
2018-05-13T23:29:23.319Z,98008
2018-05-13T23:31:50.781Z,98002
2018-05-13T23:34:18.231Z,98000
2018-05-13T23:36:44.934Z,97999
2018-05-13T23:39:11.621Z,97991
2018-05-13T23:41:39.104Z,97987
2018-05-13T23:44:05.796Z,97977
2018-05-13T23:46:32.480Z,97977
2018-05-13T23:48:59.191Z,97977
2018-05-13T23:51:26.679Z,97980
2018-05-13T23:53:54.064Z,97979
2018-05-13T23:56:20.779Z,97978
2018-05-13T23:58:47.522Z,97975
